HE44 weather

Al Ismailiyah Airport
Ismailia, Ismailia Governorate, Egypt

Public forecast

Using degrees Celsius for public forecast. Weather courtesy of forecast.io.

Closest aviation weather report (METAR) to Al Ismailiyah Airport

Closest report is Port Said Airport, 40.9 nm (75.7 km) N. Retrieved 2019/10/21 18:00 UTC (45 minutes ago):

HEPS 211800Z 06009KT CAVOK 26/22 Q1013 NOSIG

Closest aviation forecast (TAF) to Al Ismailiyah Airport

Closest forecast is Port Said Airport, 40.9 nm (75.7 km) N. Retrieved 2019/10/21 18:00 UTC (45 minutes ago):

TAF COR TAF HEPS 211750Z 2118/2224 03012KT 9999 FEW025 BKN030 TEMPO 2118/2124 4000TSRA BKN020CB